createdAt,value
2022-10-28T00:04:40.467Z,59.80
2022-10-28T00:09:55.576Z,59.70
2022-10-28T00:15:10.789Z,59.70
2022-10-28T00:20:26.476Z,59.60
2022-10-28T00:25:41.471Z,59.80
2022-10-28T00:30:56.504Z,60.20
2022-10-28T00:36:11.789Z,60.30
2022-10-28T00:41:27.778Z,60.00
2022-10-28T00:46:43.773Z,59.80
2022-10-28T00:51:59.470Z,59.70
2022-10-28T00:57:14.783Z,59.60
2022-10-28T01:02:30.803Z,59.60
2022-10-28T01:07:46.450Z,59.60
2022-10-28T01:13:01.457Z,59.60
2022-10-28T01:18:16.803Z,59.80
2022-10-28T01:23:32.234Z,59.50
2022-10-28T01:28:47.524Z,59.30
2022-10-28T01:34:02.487Z,59.30
2022-10-28T01:39:17.467Z,59.10
2022-10-28T01:44:32.805Z,59.00
2022-10-28T01:49:48.232Z,59.00
2022-10-28T01:55:03.292Z,59.00
2022-10-28T02:00:18.861Z,58.90
2022-10-28T02:05:34.460Z,59.00
2022-10-28T02:10:49.870Z,58.90
2022-10-28T02:16:05.479Z,59.20
2022-10-28T02:21:20.482Z,59.20
2022-10-28T02:26:35.778Z,59.20
2022-10-28T02:31:50.829Z,59.60
2022-10-28T02:37:06.490Z,59.10
2022-10-28T02:42:21.525Z,59.00
2022-10-28T02:47:36.487Z,59.20
2022-10-28T02:52:51.627Z,59.10
2022-10-28T02:58:06.780Z,59.10
2022-10-28T03:03:22.831Z,59.10
2022-10-28T03:08:38.541Z,59.20
2022-10-28T03:13:53.559Z,59.00
2022-10-28T03:24:23.543Z,59.00
2022-10-28T03:29:40.869Z,58.90
2022-10-28T03:34:59.482Z,59.00
2022-10-28T03:40:14.853Z,59.40
2022-10-28T03:45:30.754Z,58.80
2022-10-28T03:50:46.539Z,58.30
2022-10-28T03:56:01.791Z,58.30
2022-10-28T04:01:17.842Z,58.20
2022-10-28T04:06:33.867Z,58.20
2022-10-28T04:11:49.504Z,58.20
2022-10-28T04:17:04.527Z,58.20
2022-10-28T04:22:19.543Z,58.20
2022-10-28T04:27:34.766Z,58.10
2022-10-28T04:32:50.794Z,58.00
2022-10-28T04:38:06.477Z,57.90
2022-10-28T04:43:21.494Z,57.80
2022-10-28T04:48:36.538Z,57.70
2022-10-28T04:53:51.535Z,57.50
2022-10-28T04:59:06.499Z,57.50
2022-10-28T05:04:21.852Z,57.50
2022-10-28T05:09:37.452Z,57.50
2022-10-28T05:14:53.285Z,57.40
2022-10-28T05:20:08.538Z,57.20
2022-10-28T05:25:23.603Z,57.20
2022-10-28T05:30:38.292Z,57.10
2022-10-28T05:35:53.499Z,57.10
2022-10-28T05:41:08.481Z,57.00
2022-10-28T05:46:23.458Z,57.00
2022-10-28T05:51:38.533Z,57.00
2022-10-28T05:56:53.500Z,56.90
2022-10-28T06:02:08.553Z,56.90
2022-10-28T06:07:23.493Z,56.90
2022-10-28T06:12:36.974Z,56.80
2022-10-28T06:17:51.986Z,56.80
2022-10-28T06:23:07.083Z,56.80
2022-10-28T06:28:21.962Z,56.70
2022-10-28T06:33:36.721Z,56.70
2022-10-28T06:38:52.290Z,56.60
2022-10-28T06:44:08.001Z,56.60
2022-10-28T06:49:24.567Z,56.60
2022-10-28T06:54:39.319Z,56.50
2022-10-28T06:59:54.731Z,57.20
2022-10-28T07:05:10.507Z,56.50
2022-10-28T07:10:25.628Z,56.50
2022-10-28T07:15:40.537Z,56.50
2022-10-28T07:20:55.875Z,56.40
2022-10-28T07:26:11.522Z,56.50
2022-10-28T07:31:26.595Z,56.40
2022-10-28T07:36:41.839Z,56.50
2022-10-28T07:41:57.558Z,56.40
2022-10-28T07:47:12.642Z,56.40
2022-10-28T07:52:27.573Z,56.50
2022-10-28T07:57:42.570Z,56.40
2022-10-28T08:02:57.652Z,56.50
2022-10-28T08:08:12.513Z,56.50
2022-10-28T08:13:27.541Z,56.60
2022-10-28T08:18:42.489Z,56.60
2022-10-28T08:23:57.552Z,56.60
2022-10-28T08:29:12.814Z,56.60
2022-10-28T08:34:28.878Z,56.60
2022-10-28T08:39:45.643Z,56.60
2022-10-28T08:45:00.524Z,56.60
2022-10-28T08:50:15.477Z,56.60
2022-10-28T08:55:30.526Z,56.60
2022-10-28T09:00:45.802Z,56.50
2022-10-28T09:06:03.979Z,56.60
2022-10-28T09:11:23.484Z,56.60
2022-10-28T09:16:41.536Z,56.60
2022-10-28T09:21:56.512Z,56.60
2022-10-28T09:27:11.545Z,56.60
2022-10-28T09:32:26.517Z,56.70
2022-10-28T09:37:41.562Z,56.80
2022-10-28T09:42:56.513Z,56.90
2022-10-28T09:48:11.575Z,56.80
2022-10-28T09:53:26.557Z,56.80
2022-10-28T09:58:41.505Z,57.00
2022-10-28T10:03:56.563Z,57.10
2022-10-28T10:09:11.535Z,57.10
2022-10-28T10:14:26.508Z,57.20
2022-10-28T10:19:41.581Z,57.20
2022-10-28T10:24:57.665Z,57.30
2022-10-28T10:30:12.283Z,57.30
2022-10-28T10:35:27.492Z,57.40
2022-10-28T10:40:42.538Z,57.50
2022-10-28T10:45:57.513Z,57.50
2022-10-28T10:51:12.787Z,57.60
2022-10-28T10:56:28.573Z,57.90
2022-10-28T11:01:43.565Z,58.00
2022-10-28T11:06:58.559Z,58.20
2022-10-28T11:12:13.266Z,58.40
2022-10-28T11:17:28.621Z,58.30
2022-10-28T11:22:43.329Z,58.20
2022-10-28T11:28:01.579Z,58.20
2022-10-28T11:33:35.379Z,58.40
2022-10-28T11:38:50.572Z,58.40
2022-10-28T11:44:05.633Z,58.40
2022-10-28T11:49:20.529Z,58.70
2022-10-28T11:54:35.538Z,58.50
2022-10-28T11:59:50.316Z,58.50
2022-10-28T12:05:05.800Z,58.50
2022-10-28T12:10:21.831Z,58.50
2022-10-28T12:15:37.549Z,58.60
2022-10-28T12:20:52.557Z,58.60
2022-10-28T12:26:07.552Z,58.60
2022-10-28T12:31:22.522Z,58.70
2022-10-28T12:36:37.563Z,58.70
2022-10-28T12:41:52.533Z,58.70
2022-10-28T12:47:07.550Z,58.60
2022-10-28T12:52:22.899Z,58.60
2022-10-28T12:57:38.514Z,58.50
2022-10-28T13:02:53.809Z,58.60
2022-10-28T13:08:09.594Z,58.60
2022-10-28T13:13:24.583Z,58.50
2022-10-28T13:18:39.527Z,58.60
2022-10-28T13:23:54.279Z,58.60
2022-10-28T13:29:09.516Z,58.60
2022-10-28T13:34:24.558Z,58.50
2022-10-28T13:39:39.521Z,58.50
2022-10-28T13:44:54.568Z,58.40
2022-10-28T13:50:09.715Z,58.40
2022-10-28T13:55:24.905Z,58.40
2022-10-28T14:00:40.841Z,58.40
2022-10-28T14:05:56.686Z,58.40
2022-10-28T14:11:11.560Z,58.40
2022-10-28T14:16:26.318Z,58.30
2022-10-28T14:21:41.624Z,58.30
2022-10-28T14:26:56.568Z,58.30
2022-10-28T14:32:11.566Z,58.30
2022-10-28T14:37:28.430Z,58.30
2022-10-28T14:42:43.363Z,58.30
2022-10-28T14:47:58.976Z,58.30
2022-10-28T14:53:14.525Z,58.30
2022-10-28T14:58:29.534Z,58.20
2022-10-28T15:03:44.328Z,58.20
2022-10-28T15:08:59.282Z,58.30
2022-10-28T15:14:14.538Z,58.30
2022-10-28T15:19:29.547Z,58.20
2022-10-28T15:24:47.111Z,58.20
2022-10-28T15:30:02.586Z,58.20
2022-10-28T15:35:17.591Z,58.20
2022-10-28T15:40:32.656Z,58.20
2022-10-28T15:45:47.562Z,58.20
2022-10-28T15:51:02.529Z,58.10
2022-10-28T15:56:17.566Z,58.20
2022-10-28T16:01:32.671Z,58.20
2022-10-28T16:06:48.884Z,58.20
2022-10-28T16:12:04.605Z,58.20
2022-10-28T16:17:19.333Z,58.10
2022-10-28T16:22:34.831Z,58.20
2022-10-28T16:27:50.575Z,58.30
2022-10-28T16:33:05.321Z,58.20
2022-10-28T16:38:20.564Z,58.30
2022-10-28T16:43:35.535Z,58.30
2022-10-28T16:48:50.559Z,58.30
2022-10-28T16:54:05.591Z,58.30
2022-10-28T16:59:20.580Z,58.40
2022-10-28T17:04:35.552Z,59.00
2022-10-28T17:09:50.532Z,58.30
2022-10-28T17:15:05.589Z,58.90
2022-10-28T17:20:20.602Z,58.40
2022-10-28T17:25:35.934Z,58.50
2022-10-28T17:30:51.584Z,58.50
2022-10-28T17:36:06.860Z,58.50
2022-10-28T17:42:00.599Z,59.10
2022-10-28T17:47:15.583Z,59.40
2022-10-28T17:52:34.217Z,59.60
2022-10-28T17:57:53.827Z,59.80
2022-10-28T18:03:09.569Z,59.90
2022-10-28T18:08:24.839Z,60.10
2022-10-28T18:13:40.583Z,60.10
2022-10-28T18:18:55.387Z,60.30
2022-10-28T18:24:10.584Z,60.30
2022-10-28T18:29:25.675Z,60.50
2022-10-28T18:34:40.675Z,60.40
2022-10-28T18:39:55.637Z,60.30
2022-10-28T18:45:10.868Z,60.30
2022-10-28T18:50:26.908Z,60.20
2022-10-28T18:55:42.891Z,60.40
2022-10-28T19:00:58.328Z,60.30
2022-10-28T19:06:13.548Z,60.30
2022-10-28T19:11:28.342Z,60.20
2022-10-28T19:16:43.583Z,60.20
2022-10-28T19:21:58.895Z,60.20
2022-10-28T19:27:14.603Z,60.20
2022-10-28T19:32:29.587Z,60.30
2022-10-28T19:37:45.640Z,60.30
2022-10-28T19:43:00.624Z,60.50
2022-10-28T19:48:15.621Z,60.70
2022-10-28T19:53:30.574Z,60.50
2022-10-28T19:58:45.588Z,60.50
2022-10-28T20:04:00.582Z,60.40
2022-10-28T20:09:15.644Z,60.30
2022-10-28T20:14:30.597Z,60.50
2022-10-28T20:19:49.231Z,60.50
2022-10-28T20:25:05.576Z,60.70
2022-10-28T20:30:20.642Z,60.70
2022-10-28T20:35:35.994Z,60.70
2022-10-28T20:40:51.595Z,60.50
2022-10-28T20:46:06.558Z,61.00
2022-10-28T20:51:21.568Z,61.00
2022-10-28T20:56:36.395Z,60.70
2022-10-28T21:01:51.699Z,60.50
2022-10-28T21:07:07.543Z,60.60
2022-10-28T21:12:22.327Z,60.70
2022-10-28T21:17:37.871Z,60.70
2022-10-28T21:22:53.844Z,60.70
2022-10-28T21:28:09.861Z,60.60
2022-10-28T21:33:25.591Z,60.60
2022-10-28T21:38:40.374Z,60.60
2022-10-28T21:43:55.591Z,60.70
2022-10-28T21:49:10.574Z,60.80
2022-10-28T21:54:25.610Z,60.70
2022-10-28T21:59:40.553Z,60.80
2022-10-28T22:04:55.569Z,60.70
2022-10-28T22:10:10.851Z,60.70
2022-10-28T22:15:26.560Z,60.70
2022-10-28T22:20:41.905Z,60.80
2022-10-28T22:25:57.895Z,60.80
2022-10-28T22:31:13.616Z,60.80
2022-10-28T22:36:28.815Z,60.70
2022-10-28T22:41:44.645Z,60.50
2022-10-28T22:52:15.894Z,60.70
2022-10-28T22:57:31.965Z,61.10
2022-10-28T23:02:48.048Z,61.00
2022-10-28T23:08:03.918Z,60.80
2022-10-28T23:13:19.583Z,60.80
2022-10-28T23:18:34.690Z,60.60
2022-10-28T23:23:52.913Z,60.50
2022-10-28T23:29:09.579Z,60.50
2022-10-28T23:34:24.607Z,60.50
2022-10-28T23:39:39.650Z,60.50
2022-10-28T23:44:54.628Z,60.60
2022-10-28T23:50:09.651Z,60.50
2022-10-28T23:55:24.597Z,60.70
